createdAt,value
2023-03-22T00:03:08.536Z,13.95
2023-03-22T00:08:13.402Z,10.75
2023-03-22T00:13:17.505Z,10.27
2023-03-22T00:18:20.274Z,17.67
2023-03-22T00:23:23.897Z,13.70
2023-03-22T00:28:28.037Z,12.15
2023-03-22T00:33:32.397Z,10.32
2023-03-22T00:38:42.857Z,16.52
2023-03-22T00:43:48.620Z,13.93
2023-03-22T00:48:51.306Z,12.93
2023-03-22T00:53:54.692Z,14.30
2023-03-22T00:58:58.645Z,15.10
2023-03-22T01:04:01.785Z,12.13
2023-03-22T01:09:04.981Z,16.93
2023-03-22T01:14:09.680Z,13.47
2023-03-22T01:19:12.337Z,16.77
2023-03-22T01:24:15.576Z,16.83
2023-03-22T01:29:19.531Z,18.00
2023-03-22T01:34:22.302Z,16.20
2023-03-22T01:39:26.081Z,14.13
2023-03-22T01:44:32.301Z,22.30
2023-03-22T01:49:36.262Z,16.57
2023-03-22T01:54:43.104Z,17.47
2023-03-22T01:59:47.935Z,20.53
2023-03-22T02:04:51.166Z,18.37
2023-03-22T02:09:54.181Z,18.93
2023-03-22T02:15:07.955Z,20.33
2023-03-22T02:20:43.816Z,16.67
2023-03-22T02:26:13.198Z,18.33
2023-03-22T02:31:35.889Z,16.87
2023-03-22T02:36:56.165Z,16.73
2023-03-22T02:42:26.174Z,17.60
2023-03-22T02:47:38.446Z,16.70
2023-03-22T02:52:46.470Z,20.47
2023-03-22T02:57:56.324Z,18.43
2023-03-22T03:03:11.084Z,21.63
2023-03-22T03:08:16.386Z,17.93
2023-03-22T03:13:21.259Z,15.17
2023-03-22T03:18:36.495Z,16.70
2023-03-22T03:23:49.807Z,22.53
2023-03-22T03:29:00.566Z,18.57
2023-03-22T03:34:11.642Z,16.43
2023-03-22T03:39:17.388Z,20.03
2023-03-22T03:44:21.943Z,21.33
2023-03-22T03:49:25.211Z,17.63
2023-03-22T03:54:27.904Z,18.47
2023-03-22T03:59:31.916Z,19.07
2023-03-22T04:04:34.898Z,16.30
2023-03-22T04:09:40.374Z,15.53
2023-03-22T04:14:44.866Z,14.00
2023-03-22T04:19:47.561Z,14.50
2023-03-22T04:24:50.921Z,12.53
2023-03-22T04:29:55.858Z,13.60
2023-03-22T04:34:58.549Z,12.30
2023-03-22T04:40:01.227Z,7.17
2023-03-22T04:45:06.694Z,10.37
2023-03-22T04:50:10.335Z,11.63
2023-03-22T04:55:12.982Z,6.43
2023-03-22T05:00:18.773Z,21.93
2023-03-22T05:05:21.445Z,40.00
2023-03-22T05:10:24.086Z,30.77
2023-03-22T05:15:28.137Z,21.30
2023-03-22T05:20:30.861Z,13.50
2023-03-22T05:25:34.354Z,11.47
2023-03-22T05:30:38.967Z,11.87
2023-03-22T05:35:42.770Z,10.10
2023-03-22T05:40:48.511Z,8.93
2023-03-22T05:45:53.098Z,7.17
2023-03-22T05:50:56.110Z,7.77
2023-03-22T05:56:00.824Z,8.70
2023-03-22T06:01:11.980Z,8.07
2023-03-22T06:06:18.602Z,11.70
2023-03-22T06:11:21.347Z,8.70
2023-03-22T06:16:25.352Z,6.80
2023-03-22T06:21:28.050Z,8.10
2023-03-22T06:26:31.216Z,7.83
2023-03-22T06:31:35.312Z,6.60
2023-03-22T06:36:37.980Z,15.13
2023-03-22T06:41:43.718Z,47.97
2023-03-22T06:46:48.838Z,26.23
2023-03-22T06:51:51.593Z,20.93
2023-03-22T06:56:54.422Z,8.70
2023-03-22T07:01:58.616Z,9.37
2023-03-22T07:07:01.349Z,7.63
2023-03-22T07:12:05.019Z,7.23
2023-03-22T07:17:09.152Z,9.53
2023-03-22T07:22:11.808Z,7.72
2023-03-22T07:27:14.488Z,10.85
2023-03-22T07:32:18.687Z,8.32
2023-03-22T07:37:21.409Z,8.05
2023-03-22T07:42:24.063Z,7.55
2023-03-22T07:47:40.270Z,9.23
2023-03-22T07:52:43.950Z,6.07
2023-03-22T07:57:46.767Z,7.68
2023-03-22T08:02:50.846Z,8.32
2023-03-22T08:07:54.363Z,6.00
2023-03-22T08:12:57.018Z,7.88
2023-03-22T08:18:01.894Z,10.02
2023-03-22T08:23:04.522Z,11.25
2023-03-22T08:28:07.527Z,7.95
2023-03-22T08:33:11.646Z,6.13
2023-03-22T08:38:14.366Z,5.18
2023-03-22T08:43:17.065Z,3.72
2023-03-22T08:48:21.308Z,4.40
2023-03-22T08:53:27.011Z,3.28
2023-03-22T08:58:30.057Z,4.53
2023-03-22T09:03:34.193Z,4.15
2023-03-22T09:08:37.050Z,4.22
2023-03-22T09:13:40.202Z,2.85
2023-03-22T09:18:44.551Z,5.63
2023-03-22T09:23:48.203Z,5.25
2023-03-22T09:28:51.148Z,8.13
2023-03-22T09:33:55.499Z,2.60
2023-03-22T09:38:59.577Z,2.88
2023-03-22T09:44:05.684Z,2.58
2023-03-22T09:49:17.335Z,2.08
2023-03-22T09:54:24.401Z,4.32
2023-03-22T09:59:39.967Z,1.70
2023-03-22T10:04:56.309Z,5.32
2023-03-22T10:10:08.225Z,3.08
2023-03-22T10:15:15.704Z,1.63
2023-03-22T10:20:31.003Z,1.73
2023-03-22T10:25:37.873Z,1.85
2023-03-22T10:30:42.675Z,2.38
2023-03-22T10:35:48.340Z,1.05
2023-03-22T10:40:52.583Z,1.30
2023-03-22T10:45:58.021Z,2.25
2023-03-22T10:51:03.330Z,2.33
2023-03-22T10:56:07.671Z,5.18
2023-03-22T11:01:13.334Z,2.35
2023-03-22T11:06:19.746Z,1.17
2023-03-22T11:11:24.742Z,3.72
2023-03-22T11:16:28.858Z,2.45
2023-03-22T11:21:34.053Z,1.08
2023-03-22T11:26:40.899Z,3.80
2023-03-22T11:31:59.114Z,2.25
2023-03-22T11:37:09.215Z,5.43
2023-03-22T11:42:21.422Z,1.65
2023-03-22T11:47:27.078Z,2.60
2023-03-22T11:52:31.233Z,0.93
2023-03-22T11:57:37.568Z,0.60
2023-03-22T12:02:47.111Z,3.50
2023-03-22T12:07:55.905Z,1.40
2023-03-22T12:13:01.780Z,2.05
2023-03-22T12:18:08.751Z,2.20
2023-03-22T12:23:17.451Z,1.65
2023-03-22T12:28:24.095Z,3.05
2023-03-22T12:33:30.935Z,2.15
2023-03-22T12:38:40.729Z,0.80
2023-03-22T12:43:51.839Z,1.80
2023-03-22T12:48:59.567Z,0.90
2023-03-22T12:54:04.577Z,1.70
2023-03-22T12:59:16.666Z,2.20
2023-03-22T13:04:32.616Z,2.28
2023-03-22T13:09:42.601Z,0.90
2023-03-22T13:14:57.556Z,2.13
2023-03-22T13:20:05.857Z,1.50
2023-03-22T13:25:30.620Z,2.17
2023-03-22T13:30:37.405Z,2.05
2023-03-22T13:35:46.025Z,3.63
2023-03-22T13:40:58.120Z,1.90
2023-03-22T13:46:13.976Z,2.45
2023-03-22T13:51:19.652Z,1.73
2023-03-22T13:56:34.715Z,2.80
2023-03-22T14:01:47.540Z,1.42
2023-03-22T14:06:56.035Z,2.92
2023-03-22T14:12:06.465Z,1.70
2023-03-22T14:17:32.224Z,1.67
